sensor_id;sensor_type;location;lat;lon;timestamp;P1;durP1;ratioP1;P2;durP2;ratioP2
51082;SDS011;37131;42.694;23.350;2023-08-31T00:00:42;1.73;;;0.60;;
51082;SDS011;37131;42.694;23.350;2023-08-31T00:03:08;2.00;;;0.57;;
51082;SDS011;37131;42.694;23.350;2023-08-31T00:05:38;2.70;;;0.88;;
51082;SDS011;37131;42.694;23.350;2023-08-31T00:08:07;2.22;;;0.98;;
51082;SDS011;37131;42.694;23.350;2023-08-31T00:10:35;3.25;;;0.75;;
51082;SDS011;37131;42.694;23.350;2023-08-31T00:13:01;4.35;;;0.75;;
51082;SDS011;37131;42.694;23.350;2023-08-31T00:15:27;2.58;;;0.80;;
51082;SDS011;37131;42.694;23.350;2023-08-31T00:17:54;2.30;;;0.57;;
51082;SDS011;37131;42.694;23.350;2023-08-31T00:20:19;2.05;;;0.73;;
51082;SDS011;37131;42.694;23.350;2023-08-31T00:22:46;1.67;;;0.60;;
51082;SDS011;37131;42.694;23.350;2023-08-31T00:25:12;1.58;;;0.77;;
51082;SDS011;37131;42.694;23.350;2023-08-31T00:27:37;1.42;;;0.60;;
51082;SDS011;37131;42.694;23.350;2023-08-31T00:30:04;3.15;;;0.60;;
51082;SDS011;37131;42.694;23.350;2023-08-31T00:32:32;1.27;;;0.60;;
51082;SDS011;37131;42.694;23.350;2023-08-31T00:34:59;1.10;;;0.60;;
51082;SDS011;37131;42.694;23.350;2023-08-31T00:37:24;1.77;;;0.60;;
51082;SDS011;37131;42.694;23.350;2023-08-31T00:39:50;1.65;;;0.70;;
51082;SDS011;37131;42.694;23.350;2023-08-31T00:42:17;2.78;;;0.70;;
51082;SDS011;37131;42.694;23.350;2023-08-31T00:44:45;3.40;;;0.70;;
51082;SDS011;37131;42.694;23.350;2023-08-31T00:47:12;2.50;;;0.80;;
51082;SDS011;37131;42.694;23.350;2023-08-31T00:49:39;2.63;;;0.70;;
51082;SDS011;37131;42.694;23.350;2023-08-31T00:52:05;2.90;;;0.70;;
51082;SDS011;37131;42.694;23.350;2023-08-31T00:54:31;2.08;;;0.60;;
51082;SDS011;37131;42.694;23.350;2023-08-31T00:56:57;2.08;;;0.80;;
51082;SDS011;37131;42.694;23.350;2023-08-31T00:59:23;2.13;;;0.68;;
51082;SDS011;37131;42.694;23.350;2023-08-31T01:13:10;2.88;;;0.68;;
51082;SDS011;37131;42.694;23.350;2023-08-31T01:15:44;1.23;;;0.60;;
51082;SDS011;37131;42.694;23.350;2023-08-31T01:18:11;2.28;;;0.60;;
51082;SDS011;37131;42.694;23.350;2023-08-31T01:20:42;3.00;;;0.98;;
51082;SDS011;37131;42.694;23.350;2023-08-31T01:23:18;1.70;;;0.70;;
51082;SDS011;37131;42.694;23.350;2023-08-31T01:25:45;3.80;;;1.05;;
51082;SDS011;37131;42.694;23.350;2023-08-31T01:28:13;1.52;;;0.77;;
51082;SDS011;37131;42.694;23.350;2023-08-31T01:30:38;1.88;;;0.70;;
51082;SDS011;37131;42.694;23.350;2023-08-31T01:33:04;3.05;;;0.77;;
51082;SDS011;37131;42.694;23.350;2023-08-31T01:35:30;1.58;;;0.65;;
51082;SDS011;37131;42.694;23.350;2023-08-31T01:38:10;1.58;;;0.80;;
51082;SDS011;37131;42.694;23.350;2023-08-31T01:40:41;2.40;;;1.05;;
51082;SDS011;37131;42.694;23.350;2023-08-31T01:43:10;2.55;;;0.93;;
51082;SDS011;37131;42.694;23.350;2023-08-31T01:45:36;6.25;;;0.82;;
51082;SDS011;37131;42.694;23.350;2023-08-31T01:48:03;1.73;;;0.65;;
51082;SDS011;37131;42.694;23.350;2023-08-31T01:50:29;2.55;;;0.55;;
51082;SDS011;37131;42.694;23.350;2023-08-31T01:52:54;2.67;;;0.88;;
51082;SDS011;37131;42.694;23.350;2023-08-31T01:55:21;2.50;;;0.65;;
51082;SDS011;37131;42.694;23.350;2023-08-31T01:57:49;2.33;;;0.50;;
51082;SDS011;37131;42.694;23.350;2023-08-31T02:00:16;2.17;;;0.60;;
51082;SDS011;37131;42.694;23.350;2023-08-31T02:02:42;1.35;;;0.52;;
51082;SDS011;37131;42.694;23.350;2023-08-31T02:05:08;3.75;;;0.88;;
51082;SDS011;37131;42.694;23.350;2023-08-31T02:07:35;3.03;;;0.68;;
51082;SDS011;37131;42.694;23.350;2023-08-31T02:10:00;3.33;;;1.33;;
51082;SDS011;37131;42.694;23.350;2023-08-31T02:12:25;2.28;;;0.70;;
51082;SDS011;37131;42.694;23.350;2023-08-31T02:14:51;2.85;;;0.75;;
51082;SDS011;37131;42.694;23.350;2023-08-31T02:17:16;3.53;;;0.90;;
51082;SDS011;37131;42.694;23.350;2023-08-31T02:19:42;6.05;;;0.80;;
51082;SDS011;37131;42.694;23.350;2023-08-31T02:22:08;2.67;;;0.68;;
51082;SDS011;37131;42.694;23.350;2023-08-31T02:24:34;2.17;;;0.90;;
51082;SDS011;37131;42.694;23.350;2023-08-31T02:26:59;3.70;;;1.15;;
51082;SDS011;37131;42.694;23.350;2023-08-31T02:29:25;4.28;;;1.00;;
51082;SDS011;37131;42.694;23.350;2023-08-31T02:31:50;4.93;;;0.68;;
51082;SDS011;37131;42.694;23.350;2023-08-31T02:34:15;3.30;;;0.70;;
51082;SDS011;37131;42.694;23.350;2023-08-31T02:36:41;1.35;;;0.60;;
51082;SDS011;37131;42.694;23.350;2023-08-31T02:39:06;1.85;;;0.75;;
51082;SDS011;37131;42.694;23.350;2023-08-31T02:41:32;3.13;;;0.75;;
51082;SDS011;37131;42.694;23.350;2023-08-31T02:43:57;4.82;;;0.93;;
51082;SDS011;37131;42.694;23.350;2023-08-31T02:46:23;3.45;;;0.77;;
51082;SDS011;37131;42.694;23.350;2023-08-31T02:48:49;1.38;;;0.55;;
51082;SDS011;37131;42.694;23.350;2023-08-31T02:51:15;1.75;;;0.55;;
51082;SDS011;37131;42.694;23.350;2023-08-31T02:53:41;5.47;;;0.80;;
51082;SDS011;37131;42.694;23.350;2023-08-31T02:56:06;3.72;;;0.80;;
51082;SDS011;37131;42.694;23.350;2023-08-31T02:58:32;3.65;;;0.90;;
51082;SDS011;37131;42.694;23.350;2023-08-31T03:01:07;2.63;;;0.70;;
51082;SDS011;37131;42.694;23.350;2023-08-31T03:03:33;2.63;;;1.10;;
51082;SDS011;37131;42.694;23.350;2023-08-31T03:06:00;7.25;;;2.10;;
51082;SDS011;37131;42.694;23.350;2023-08-31T03:08:25;3.90;;;1.70;;
51082;SDS011;37131;42.694;23.350;2023-08-31T03:10:50;5.57;;;2.47;;
51082;SDS011;37131;42.694;23.350;2023-08-31T03:13:16;6.90;;;2.60;;
51082;SDS011;37131;42.694;23.350;2023-08-31T03:15:41;14.40;;;4.78;;
51082;SDS011;37131;42.694;23.350;2023-08-31T03:18:07;13.65;;;5.65;;
51082;SDS011;37131;42.694;23.350;2023-08-31T03:20:32;14.48;;;5.30;;
51082;SDS011;37131;42.694;23.350;2023-08-31T03:22:57;10.13;;;4.47;;
51082;SDS011;37131;42.694;23.350;2023-08-31T03:25:23;8.50;;;3.53;;
51082;SDS011;37131;42.694;23.350;2023-08-31T03:27:49;6.88;;;3.00;;
51082;SDS011;37131;42.694;23.350;2023-08-31T03:30:14;9.30;;;2.92;;
51082;SDS011;37131;42.694;23.350;2023-08-31T03:32:40;7.72;;;2.45;;
51082;SDS011;37131;42.694;23.350;2023-08-31T03:35:05;4.78;;;1.60;;
51082;SDS011;37131;42.694;23.350;2023-08-31T03:37:32;3.72;;;1.55;;
51082;SDS011;37131;42.694;23.350;2023-08-31T03:39:58;9.27;;;1.73;;
51082;SDS011;37131;42.694;23.350;2023-08-31T03:42:23;6.20;;;1.48;;
51082;SDS011;37131;42.694;23.350;2023-08-31T03:44:49;2.63;;;1.10;;
51082;SDS011;37131;42.694;23.350;2023-08-31T03:47:14;7.00;;;1.77;;
51082;SDS011;37131;42.694;23.350;2023-08-31T03:49:39;2.10;;;1.05;;
51082;SDS011;37131;42.694;23.350;2023-08-31T03:52:05;4.22;;;1.20;;
51082;SDS011;37131;42.694;23.350;2023-08-31T03:54:30;2.97;;;1.08;;
51082;SDS011;37131;42.694;23.350;2023-08-31T03:56:56;2.83;;;0.90;;
51082;SDS011;37131;42.694;23.350;2023-08-31T03:59:21;6.75;;;1.05;;
51082;SDS011;37131;42.694;23.350;2023-08-31T04:01:46;3.05;;;0.70;;
51082;SDS011;37131;42.694;23.350;2023-08-31T04:04:12;3.80;;;1.20;;
51082;SDS011;37131;42.694;23.350;2023-08-31T04:06:37;5.53;;;1.05;;
51082;SDS011;37131;42.694;23.350;2023-08-31T04:09:03;3.05;;;0.98;;
51082;SDS011;37131;42.694;23.350;2023-08-31T04:11:29;3.00;;;1.05;;
51082;SDS011;37131;42.694;23.350;2023-08-31T04:13:54;3.80;;;1.10;;
51082;SDS011;37131;42.694;23.350;2023-08-31T04:16:20;3.35;;;0.80;;
51082;SDS011;37131;42.694;23.350;2023-08-31T04:18:46;3.03;;;1.00;;
51082;SDS011;37131;42.694;23.350;2023-08-31T04:21:16;3.25;;;1.08;;
51082;SDS011;37131;42.694;23.350;2023-08-31T04:23:42;1.63;;;0.80;;
51082;SDS011;37131;42.694;23.350;2023-08-31T04:26:11;2.95;;;1.00;;
51082;SDS011;37131;42.694;23.350;2023-08-31T04:28:42;2.25;;;1.08;;
51082;SDS011;37131;42.694;23.350;2023-08-31T04:31:08;3.78;;;1.00;;
51082;SDS011;37131;42.694;23.350;2023-08-31T04:33:37;1.67;;;0.75;;
51082;SDS011;37131;42.694;23.350;2023-08-31T04:36:03;5.00;;;1.15;;
51082;SDS011;37131;42.694;23.350;2023-08-31T04:38:30;4.05;;;1.10;;
51082;SDS011;37131;42.694;23.350;2023-08-31T04:40:59;3.35;;;1.05;;
51082;SDS011;37131;42.694;23.350;2023-08-31T04:43:25;4.13;;;1.23;;
51082;SDS011;37131;42.694;23.350;2023-08-31T04:45:53;4.55;;;1.50;;
51082;SDS011;37131;42.694;23.350;2023-08-31T04:48:19;6.45;;;1.65;;
51082;SDS011;37131;42.694;23.350;2023-08-31T04:50:44;4.18;;;1.50;;
51082;SDS011;37131;42.694;23.350;2023-08-31T04:53:10;2.88;;;0.93;;
51082;SDS011;37131;42.694;23.350;2023-08-31T04:55:35;5.28;;;1.20;;
51082;SDS011;37131;42.694;23.350;2023-08-31T04:58:02;3.58;;;1.13;;
51082;SDS011;37131;42.694;23.350;2023-08-31T05:00:28;2.88;;;1.30;;
51082;SDS011;37131;42.694;23.350;2023-08-31T05:02:53;3.35;;;1.20;;
51082;SDS011;37131;42.694;23.350;2023-08-31T05:05:19;3.72;;;1.02;;
51082;SDS011;37131;42.694;23.350;2023-08-31T05:07:44;3.03;;;0.98;;
51082;SDS011;37131;42.694;23.350;2023-08-31T05:10:10;3.53;;;1.60;;
51082;SDS011;37131;42.694;23.350;2023-08-31T05:12:35;2.88;;;1.02;;
51082;SDS011;37131;42.694;23.350;2023-08-31T05:15:01;6.35;;;1.65;;
51082;SDS011;37131;42.694;23.350;2023-08-31T05:17:27;4.35;;;1.48;;
51082;SDS011;37131;42.694;23.350;2023-08-31T05:19:53;5.72;;;1.90;;
51082;SDS011;37131;42.694;23.350;2023-08-31T05:22:18;4.25;;;1.30;;
51082;SDS011;37131;42.694;23.350;2023-08-31T05:24:43;6.85;;;1.55;;
51082;SDS011;37131;42.694;23.350;2023-08-31T05:27:09;6.65;;;1.65;;
51082;SDS011;37131;42.694;23.350;2023-08-31T05:29:34;3.50;;;1.35;;
51082;SDS011;37131;42.694;23.350;2023-08-31T05:31:59;3.15;;;1.20;;
51082;SDS011;37131;42.694;23.350;2023-08-31T05:34:25;7.43;;;1.50;;
51082;SDS011;37131;42.694;23.350;2023-08-31T05:36:51;7.22;;;1.23;;
51082;SDS011;37131;42.694;23.350;2023-08-31T05:39:16;7.00;;;1.48;;
51082;SDS011;37131;42.694;23.350;2023-08-31T05:41:42;6.25;;;1.27;;
51082;SDS011;37131;42.694;23.350;2023-08-31T05:44:09;3.10;;;1.52;;
51082;SDS011;37131;42.694;23.350;2023-08-31T05:46:35;5.53;;;1.48;;
51082;SDS011;37131;42.694;23.350;2023-08-31T05:49:00;4.63;;;1.20;;
51082;SDS011;37131;42.694;23.350;2023-08-31T05:51:26;3.28;;;1.55;;
51082;SDS011;37131;42.694;23.350;2023-08-31T05:53:51;4.03;;;1.25;;
51082;SDS011;37131;42.694;23.350;2023-08-31T05:56:18;4.93;;;1.20;;
51082;SDS011;37131;42.694;23.350;2023-08-31T05:58:44;6.75;;;1.45;;
51082;SDS011;37131;42.694;23.350;2023-08-31T06:01:10;5.30;;;1.27;;
51082;SDS011;37131;42.694;23.350;2023-08-31T06:03:35;4.32;;;0.95;;
51082;SDS011;37131;42.694;23.350;2023-08-31T06:06:01;6.45;;;1.27;;
51082;SDS011;37131;42.694;23.350;2023-08-31T06:08:28;6.63;;;1.60;;
51082;SDS011;37131;42.694;23.350;2023-08-31T06:10:55;5.45;;;1.25;;
51082;SDS011;37131;42.694;23.350;2023-08-31T06:13:21;8.55;;;1.63;;
51082;SDS011;37131;42.694;23.350;2023-08-31T06:15:46;4.88;;;1.48;;
51082;SDS011;37131;42.694;23.350;2023-08-31T06:18:11;7.47;;;1.30;;
51082;SDS011;37131;42.694;23.350;2023-08-31T06:20:37;6.30;;;1.30;;
51082;SDS011;37131;42.694;23.350;2023-08-31T06:23:02;2.92;;;1.23;;
51082;SDS011;37131;42.694;23.350;2023-08-31T06:25:28;7.22;;;1.30;;
51082;SDS011;37131;42.694;23.350;2023-08-31T06:27:53;3.08;;;1.05;;
51082;SDS011;37131;42.694;23.350;2023-08-31T06:30:19;3.65;;;1.30;;
51082;SDS011;37131;42.694;23.350;2023-08-31T06:32:45;5.53;;;1.10;;
51082;SDS011;37131;42.694;23.350;2023-08-31T06:35:12;7.85;;;1.45;;
51082;SDS011;37131;42.694;23.350;2023-08-31T06:37:38;4.95;;;1.30;;
51082;SDS011;37131;42.694;23.350;2023-08-31T06:40:08;7.85;;;1.73;;
51082;SDS011;37131;42.694;23.350;2023-08-31T06:42:38;5.47;;;1.48;;
51082;SDS011;37131;42.694;23.350;2023-08-31T06:45:04;5.25;;;1.30;;
51082;SDS011;37131;42.694;23.350;2023-08-31T06:47:31;2.08;;;0.77;;
51082;SDS011;37131;42.694;23.350;2023-08-31T06:49:56;3.53;;;0.80;;
51082;SDS011;37131;42.694;23.350;2023-08-31T06:52:23;3.85;;;0.90;;
51082;SDS011;37131;42.694;23.350;2023-08-31T06:54:49;5.55;;;1.00;;
51082;SDS011;37131;42.694;23.350;2023-08-31T06:57:14;5.03;;;1.10;;
51082;SDS011;37131;42.694;23.350;2023-08-31T06:59:39;2.80;;;0.98;;
51082;SDS011;37131;42.694;23.350;2023-08-31T07:02:05;2.83;;;1.00;;
51082;SDS011;37131;42.694;23.350;2023-08-31T07:04:30;3.30;;;0.95;;
51082;SDS011;37131;42.694;23.350;2023-08-31T07:06:56;1.85;;;0.77;;
51082;SDS011;37131;42.694;23.350;2023-08-31T07:09:21;1.65;;;0.80;;
51082;SDS011;37131;42.694;23.350;2023-08-31T07:11:46;2.70;;;0.77;;
51082;SDS011;37131;42.694;23.350;2023-08-31T07:14:12;2.80;;;0.82;;
51082;SDS011;37131;42.694;23.350;2023-08-31T07:16:37;1.83;;;0.73;;
51082;SDS011;37131;42.694;23.350;2023-08-31T07:19:03;2.50;;;0.80;;
51082;SDS011;37131;42.694;23.350;2023-08-31T07:21:28;3.92;;;0.93;;
51082;SDS011;37131;42.694;23.350;2023-08-31T07:23:54;3.35;;;0.70;;
51082;SDS011;37131;42.694;23.350;2023-08-31T07:26:20;3.25;;;0.60;;
51082;SDS011;37131;42.694;23.350;2023-08-31T07:28:46;5.13;;;0.60;;
51082;SDS011;37131;42.694;23.350;2023-08-31T07:31:12;5.30;;;1.15;;
51082;SDS011;37131;42.694;23.350;2023-08-31T07:33:37;3.03;;;0.90;;
51082;SDS011;37131;42.694;23.350;2023-08-31T07:36:03;5.88;;;0.98;;
51082;SDS011;37131;42.694;23.350;2023-08-31T07:38:30;4.15;;;0.80;;
51082;SDS011;37131;42.694;23.350;2023-08-31T07:40:56;7.88;;;0.90;;
51082;SDS011;37131;42.694;23.350;2023-08-31T07:43:21;3.38;;;0.60;;
51082;SDS011;37131;42.694;23.350;2023-08-31T07:45:47;2.65;;;0.75;;
51082;SDS011;37131;42.694;23.350;2023-08-31T07:48:12;2.30;;;0.70;;
51082;SDS011;37131;42.694;23.350;2023-08-31T07:50:40;2.80;;;0.70;;
51082;SDS011;37131;42.694;23.350;2023-08-31T07:53:06;2.03;;;0.40;;
51082;SDS011;37131;42.694;23.350;2023-08-31T07:55:32;4.93;;;0.95;;
51082;SDS011;37131;42.694;23.350;2023-08-31T07:57:58;1.73;;;0.70;;
51082;SDS011;37131;42.694;23.350;2023-08-31T08:00:23;3.28;;;0.82;;
51082;SDS011;37131;42.694;23.350;2023-08-31T08:02:48;1.58;;;0.77;;
51082;SDS011;37131;42.694;23.350;2023-08-31T08:05:14;2.15;;;0.75;;
51082;SDS011;37131;42.694;23.350;2023-08-31T08:07:39;2.30;;;0.85;;
51082;SDS011;37131;42.694;23.350;2023-08-31T08:10:07;3.40;;;1.00;;
51082;SDS011;37131;42.694;23.350;2023-08-31T08:12:37;2.00;;;0.75;;
51082;SDS011;37131;42.694;23.350;2023-08-31T08:15:06;3.47;;;0.90;;
51082;SDS011;37131;42.694;23.350;2023-08-31T08:17:33;2.75;;;0.70;;
51082;SDS011;37131;42.694;23.350;2023-08-31T08:19:58;2.33;;;0.70;;
51082;SDS011;37131;42.694;23.350;2023-08-31T08:22:24;3.15;;;0.60;;
51082;SDS011;37131;42.694;23.350;2023-08-31T08:24:50;1.63;;;0.80;;
51082;SDS011;37131;42.694;23.350;2023-08-31T08:27:16;3.25;;;0.73;;
51082;SDS011;37131;42.694;23.350;2023-08-31T08:29:43;1.70;;;0.57;;
51082;SDS011;37131;42.694;23.350;2023-08-31T08:32:08;2.80;;;0.65;;
51082;SDS011;37131;42.694;23.350;2023-08-31T08:34:34;2.60;;;0.80;;
51082;SDS011;37131;42.694;23.350;2023-08-31T08:36:59;4.03;;;0.88;;
51082;SDS011;37131;42.694;23.350;2023-08-31T08:39:25;5.57;;;1.30;;
51082;SDS011;37131;42.694;23.350;2023-08-31T08:41:50;3.40;;;1.10;;
51082;SDS011;37131;42.694;23.350;2023-08-31T08:44:19;2.50;;;0.98;;
51082;SDS011;37131;42.694;23.350;2023-08-31T08:46:46;2.75;;;1.00;;
51082;SDS011;37131;42.694;23.350;2023-08-31T08:49:14;2.92;;;1.13;;
51082;SDS011;37131;42.694;23.350;2023-08-31T08:51:40;2.40;;;1.08;;
51082;SDS011;37131;42.694;23.350;2023-08-31T08:54:06;2.78;;;1.17;;
51082;SDS011;37131;42.694;23.350;2023-08-31T08:56:33;4.28;;;1.60;;
51082;SDS011;37131;42.694;23.350;2023-08-31T08:58:59;4.05;;;1.65;;
51082;SDS011;37131;42.694;23.350;2023-08-31T09:01:25;4.53;;;1.70;;
51082;SDS011;37131;42.694;23.350;2023-08-31T09:03:51;5.70;;;1.35;;
51082;SDS011;37131;42.694;23.350;2023-08-31T09:06:17;4.07;;;1.35;;
51082;SDS011;37131;42.694;23.350;2023-08-31T09:08:43;3.65;;;1.50;;
51082;SDS011;37131;42.694;23.350;2023-08-31T09:11:08;2.63;;;1.15;;
51082;SDS011;37131;42.694;23.350;2023-08-31T09:13:33;3.05;;;1.05;;
51082;SDS011;37131;42.694;23.350;2023-08-31T09:15:59;2.92;;;1.20;;
51082;SDS011;37131;42.694;23.350;2023-08-31T09:20:57;6.30;;;1.30;;
51082;SDS011;37131;42.694;23.350;2023-08-31T09:23:23;4.25;;;1.50;;
51082;SDS011;37131;42.694;23.350;2023-08-31T09:25:50;3.38;;;1.15;;
51082;SDS011;37131;42.694;23.350;2023-08-31T09:28:21;3.17;;;1.10;;
51082;SDS011;37131;42.694;23.350;2023-08-31T09:30:52;2.95;;;1.33;;
51082;SDS011;37131;42.694;23.350;2023-08-31T09:33:19;6.18;;;1.35;;
51082;SDS011;37131;42.694;23.350;2023-08-31T09:36:19;3.33;;;1.02;;
51082;SDS011;37131;42.694;23.350;2023-08-31T09:38:43;3.22;;;1.10;;
51082;SDS011;37131;42.694;23.350;2023-08-31T09:41:09;3.17;;;1.30;;
51082;SDS011;37131;42.694;23.350;2023-08-31T09:43:34;3.17;;;1.13;;
51082;SDS011;37131;42.694;23.350;2023-08-31T09:46:00;2.60;;;1.20;;
51082;SDS011;37131;42.694;23.350;2023-08-31T09:48:28;2.97;;;1.30;;
51082;SDS011;37131;42.694;23.350;2023-08-31T09:50:54;2.60;;;1.23;;
51082;SDS011;37131;42.694;23.350;2023-08-31T09:53:21;3.60;;;1.45;;
51082;SDS011;37131;42.694;23.350;2023-08-31T09:55:48;3.10;;;1.50;;
51082;SDS011;37131;42.694;23.350;2023-08-31T09:58:17;3.80;;;1.48;;
51082;SDS011;37131;42.694;23.350;2023-08-31T10:00:44;2.55;;;1.10;;
51082;SDS011;37131;42.694;23.350;2023-08-31T10:03:11;2.83;;;1.30;;
51082;SDS011;37131;42.694;23.350;2023-08-31T10:05:40;4.30;;;1.30;;
51082;SDS011;37131;42.694;23.350;2023-08-31T10:08:06;2.90;;;1.13;;
51082;SDS011;37131;42.694;23.350;2023-08-31T10:10:32;3.20;;;1.40;;
51082;SDS011;37131;42.694;23.350;2023-08-31T10:12:58;5.20;;;1.35;;
51082;SDS011;37131;42.694;23.350;2023-08-31T10:15:26;3.45;;;1.30;;
51082;SDS011;37131;42.694;23.350;2023-08-31T10:18:05;3.38;;;1.30;;
51082;SDS011;37131;42.694;23.350;2023-08-31T10:20:31;3.47;;;1.25;;
51082;SDS011;37131;42.694;23.350;2023-08-31T10:22:58;2.40;;;1.05;;
51082;SDS011;37131;42.694;23.350;2023-08-31T10:25:24;3.88;;;1.40;;
51082;SDS011;37131;42.694;23.350;2023-08-31T10:27:51;3.40;;;1.15;;
51082;SDS011;37131;42.694;23.350;2023-08-31T10:35:41;2.45;;;1.48;;
51082;SDS011;37131;42.694;23.350;2023-08-31T10:40:40;3.08;;;1.10;;
51082;SDS011;37131;42.694;23.350;2023-08-31T10:43:15;7.20;;;1.38;;
51082;SDS011;37131;42.694;23.350;2023-08-31T10:45:44;5.53;;;1.55;;
51082;SDS011;37131;42.694;23.350;2023-08-31T10:48:10;3.03;;;1.50;;
51082;SDS011;37131;42.694;23.350;2023-08-31T10:50:45;3.45;;;1.00;;
51082;SDS011;37131;42.694;23.350;2023-08-31T10:53:12;3.50;;;1.45;;
51082;SDS011;37131;42.694;23.350;2023-08-31T10:55:51;2.95;;;1.20;;
51082;SDS011;37131;42.694;23.350;2023-08-31T10:58:17;3.28;;;1.40;;
51082;SDS011;37131;42.694;23.350;2023-08-31T11:00:46;3.63;;;1.67;;
51082;SDS011;37131;42.694;23.350;2023-08-31T11:03:15;2.40;;;1.00;;
51082;SDS011;37131;42.694;23.350;2023-08-31T11:05:52;3.55;;;1.27;;
51082;SDS011;37131;42.694;23.350;2023-08-31T11:08:22;4.25;;;1.25;;
51082;SDS011;37131;42.694;23.350;2023-08-31T11:10:48;3.90;;;1.27;;
51082;SDS011;37131;42.694;23.350;2023-08-31T11:13:20;4.90;;;1.25;;
51082;SDS011;37131;42.694;23.350;2023-08-31T11:15:46;2.90;;;1.25;;
51082;SDS011;37131;42.694;23.350;2023-08-31T11:18:12;3.92;;;1.70;;
51082;SDS011;37131;42.694;23.350;2023-08-31T11:20:41;2.95;;;1.30;;
51082;SDS011;37131;42.694;23.350;2023-08-31T11:23:07;2.80;;;1.13;;
51082;SDS011;37131;42.694;23.350;2023-08-31T11:25:33;4.22;;;1.48;;
51082;SDS011;37131;42.694;23.350;2023-08-31T11:27:59;2.35;;;1.20;;
51082;SDS011;37131;42.694;23.350;2023-08-31T11:30:26;2.65;;;1.35;;
51082;SDS011;37131;42.694;23.350;2023-08-31T11:32:53;2.22;;;1.08;;
51082;SDS011;37131;42.694;23.350;2023-08-31T11:35:21;5.80;;;1.35;;
51082;SDS011;37131;42.694;23.350;2023-08-31T11:37:49;3.63;;;1.15;;
51082;SDS011;37131;42.694;23.350;2023-08-31T11:40:17;3.42;;;1.20;;
51082;SDS011;37131;42.694;23.350;2023-08-31T11:42:43;2.97;;;1.13;;
51082;SDS011;37131;42.694;23.350;2023-08-31T11:45:10;2.28;;;1.10;;
51082;SDS011;37131;42.694;23.350;2023-08-31T11:47:37;2.33;;;1.23;;
51082;SDS011;37131;42.694;23.350;2023-08-31T11:50:04;3.45;;;1.17;;
51082;SDS011;37131;42.694;23.350;2023-08-31T11:52:31;5.25;;;1.10;;
51082;SDS011;37131;42.694;23.350;2023-08-31T11:54:57;4.32;;;1.02;;
51082;SDS011;37131;42.694;23.350;2023-08-31T11:57:25;2.90;;;0.98;;
51082;SDS011;37131;42.694;23.350;2023-08-31T11:59:53;3.00;;;1.00;;
51082;SDS011;37131;42.694;23.350;2023-08-31T12:02:20;1.73;;;0.80;;
51082;SDS011;37131;42.694;23.350;2023-08-31T12:04:46;2.45;;;1.05;;
51082;SDS011;37131;42.694;23.350;2023-08-31T12:07:15;2.67;;;0.90;;
51082;SDS011;37131;42.694;23.350;2023-08-31T12:09:42;3.08;;;1.10;;
51082;SDS011;37131;42.694;23.350;2023-08-31T12:12:11;3.78;;;1.33;;
51082;SDS011;37131;42.694;23.350;2023-08-31T12:14:39;3.10;;;1.00;;
51082;SDS011;37131;42.694;23.350;2023-08-31T12:17:05;2.42;;;1.00;;
51082;SDS011;37131;42.694;23.350;2023-08-31T12:19:33;2.47;;;1.00;;
51082;SDS011;37131;42.694;23.350;2023-08-31T12:22:02;4.32;;;0.93;;
51082;SDS011;37131;42.694;23.350;2023-08-31T12:24:27;2.35;;;1.00;;
51082;SDS011;37131;42.694;23.350;2023-08-31T12:26:53;3.63;;;1.58;;
51082;SDS011;37131;42.694;23.350;2023-08-31T12:29:21;3.08;;;0.90;;
51082;SDS011;37131;42.694;23.350;2023-08-31T12:31:47;3.97;;;1.10;;
51082;SDS011;37131;42.694;23.350;2023-08-31T12:34:14;2.40;;;1.08;;
51082;SDS011;37131;42.694;23.350;2023-08-31T12:36:41;2.47;;;0.88;;
51082;SDS011;37131;42.694;23.350;2023-08-31T12:39:07;2.63;;;1.10;;
51082;SDS011;37131;42.694;23.350;2023-08-31T12:41:35;7.10;;;1.35;;
51082;SDS011;37131;42.694;23.350;2023-08-31T12:44:01;2.97;;;0.88;;
51082;SDS011;37131;42.694;23.350;2023-08-31T12:46:28;2.00;;;0.95;;
51082;SDS011;37131;42.694;23.350;2023-08-31T12:48:54;3.83;;;1.00;;
51082;SDS011;37131;42.694;23.350;2023-08-31T12:51:19;5.93;;;1.20;;
51082;SDS011;37131;42.694;23.350;2023-08-31T12:53:45;1.50;;;0.70;;
51082;SDS011;37131;42.694;23.350;2023-08-31T12:56:11;3.53;;;0.98;;
51082;SDS011;37131;42.694;23.350;2023-08-31T12:58:37;2.53;;;0.98;;
51082;SDS011;37131;42.694;23.350;2023-08-31T13:01:03;3.55;;;0.90;;
51082;SDS011;37131;42.694;23.350;2023-08-31T13:03:28;3.63;;;1.13;;
51082;SDS011;37131;42.694;23.350;2023-08-31T13:05:54;2.15;;;0.70;;
51082;SDS011;37131;42.694;23.350;2023-08-31T13:08:19;3.20;;;0.80;;
51082;SDS011;37131;42.694;23.350;2023-08-31T13:10:50;2.17;;;0.90;;
51082;SDS011;37131;42.694;23.350;2023-08-31T13:13:18;5.10;;;1.20;;
51082;SDS011;37131;42.694;23.350;2023-08-31T13:15:45;2.72;;;0.95;;
51082;SDS011;37131;42.694;23.350;2023-08-31T13:18:11;1.65;;;0.77;;
51082;SDS011;37131;42.694;23.350;2023-08-31T13:20:36;2.28;;;1.08;;
51082;SDS011;37131;42.694;23.350;2023-08-31T13:23:02;4.07;;;1.00;;
51082;SDS011;37131;42.694;23.350;2023-08-31T13:25:28;3.70;;;0.98;;
51082;SDS011;37131;42.694;23.350;2023-08-31T13:27:53;2.58;;;0.80;;
51082;SDS011;37131;42.694;23.350;2023-08-31T13:30:19;2.17;;;0.90;;
51082;SDS011;37131;42.694;23.350;2023-08-31T13:32:44;2.95;;;0.80;;
51082;SDS011;37131;42.694;23.350;2023-08-31T13:35:09;2.75;;;0.95;;
51082;SDS011;37131;42.694;23.350;2023-08-31T13:37:35;1.98;;;0.80;;
51082;SDS011;37131;42.694;23.350;2023-08-31T13:40:01;6.80;;;1.02;;
51082;SDS011;37131;42.694;23.350;2023-08-31T13:42:32;3.15;;;1.27;;
51082;SDS011;37131;42.694;23.350;2023-08-31T13:44:58;3.08;;;1.00;;
51082;SDS011;37131;42.694;23.350;2023-08-31T13:47:24;2.40;;;0.90;;
51082;SDS011;37131;42.694;23.350;2023-08-31T13:49:49;2.20;;;0.80;;
51082;SDS011;37131;42.694;23.350;2023-08-31T13:52:15;3.13;;;0.80;;
51082;SDS011;37131;42.694;23.350;2023-08-31T13:54:41;4.05;;;0.75;;
51082;SDS011;37131;42.694;23.350;2023-08-31T13:57:07;3.65;;;0.90;;
51082;SDS011;37131;42.694;23.350;2023-08-31T13:59:32;3.97;;;0.93;;
51082;SDS011;37131;42.694;23.350;2023-08-31T14:01:57;2.83;;;1.15;;
51082;SDS011;37131;42.694;23.350;2023-08-31T14:04:23;3.13;;;1.00;;
51082;SDS011;37131;42.694;23.350;2023-08-31T14:06:48;2.42;;;0.73;;
51082;SDS011;37131;42.694;23.350;2023-08-31T14:09:14;1.95;;;0.80;;
51082;SDS011;37131;42.694;23.350;2023-08-31T14:11:39;1.75;;;0.65;;
51082;SDS011;37131;42.694;23.350;2023-08-31T14:14:05;4.72;;;1.20;;
51082;SDS011;37131;42.694;23.350;2023-08-31T14:16:34;3.38;;;0.90;;
51082;SDS011;37131;42.694;23.350;2023-08-31T14:19:02;2.90;;;0.88;;
51082;SDS011;37131;42.694;23.350;2023-08-31T14:21:28;3.20;;;1.10;;
51082;SDS011;37131;42.694;23.350;2023-08-31T14:23:54;1.83;;;0.70;;
51082;SDS011;37131;42.694;23.350;2023-08-31T14:26:21;4.00;;;1.00;;
51082;SDS011;37131;42.694;23.350;2023-08-31T14:28:52;3.80;;;0.90;;
51082;SDS011;37131;42.694;23.350;2023-08-31T14:31:18;2.35;;;0.70;;
51082;SDS011;37131;42.694;23.350;2023-08-31T14:33:44;2.78;;;0.80;;
51082;SDS011;37131;42.694;23.350;2023-08-31T14:36:10;1.88;;;0.70;;
51082;SDS011;37131;42.694;23.350;2023-08-31T14:38:36;3.08;;;0.93;;
51082;SDS011;37131;42.694;23.350;2023-08-31T14:41:01;2.50;;;0.75;;
51082;SDS011;37131;42.694;23.350;2023-08-31T14:43:27;3.08;;;1.00;;
51082;SDS011;37131;42.694;23.350;2023-08-31T14:45:52;3.75;;;1.00;;
51082;SDS011;37131;42.694;23.350;2023-08-31T14:48:18;2.00;;;0.88;;
51082;SDS011;37131;42.694;23.350;2023-08-31T14:50:43;2.97;;;0.90;;